sensor_id;sensor_type;location;lat;lon;timestamp;temperature;humidity
20081;DHT22;10200;49.232;9.222;2023-03-01T00:01:39;1.10;93.00
20081;DHT22;10200;49.232;9.222;2023-03-01T00:04:05;1.10;93.10
20081;DHT22;10200;49.232;9.222;2023-03-01T00:06:31;1.10;93.30
20081;DHT22;10200;49.232;9.222;2023-03-01T00:08:56;1.10;93.50
20081;DHT22;10200;49.232;9.222;2023-03-01T00:11:27;1.10;93.70
20081;DHT22;10200;49.232;9.222;2023-03-01T00:13:55;1.00;93.80
20081;DHT22;10200;49.232;9.222;2023-03-01T00:16:33;1.00;94.00
20081;DHT22;10200;49.232;9.222;2023-03-01T00:18:59;1.00;94.10
20081;DHT22;10200;49.232;9.222;2023-03-01T00:21:25;1.00;94.30
20081;DHT22;10200;49.232;9.222;2023-03-01T00:23:51;1.00;94.50
20081;DHT22;10200;49.232;9.222;2023-03-01T00:26:18;1.00;94.80
20081;DHT22;10200;49.232;9.222;2023-03-01T00:28:44;1.00;94.80
20081;DHT22;10200;49.232;9.222;2023-03-01T00:31:14;1.00;95.00
20081;DHT22;10200;49.232;9.222;2023-03-01T00:33:41;1.00;95.30
20081;DHT22;10200;49.232;9.222;2023-03-01T00:36:07;1.00;95.40
20081;DHT22;10200;49.232;9.222;2023-03-01T00:38:37;1.00;95.40
20081;DHT22;10200;49.232;9.222;2023-03-01T00:41:08;0.90;95.50
20081;DHT22;10200;49.232;9.222;2023-03-01T00:43:34;0.90;95.80
20081;DHT22;10200;49.232;9.222;2023-03-01T00:46:12;1.00;95.70
20081;DHT22;10200;49.232;9.222;2023-03-01T00:48:39;0.90;95.90
20081;DHT22;10200;49.232;9.222;2023-03-01T00:51:10;0.90;95.90
20081;DHT22;10200;49.232;9.222;2023-03-01T00:53:37;0.90;95.80
20081;DHT22;10200;49.232;9.222;2023-03-01T00:56:03;0.90;96.00
20081;DHT22;10200;49.232;9.222;2023-03-01T00:58:29;0.90;96.10
20081;DHT22;10200;49.232;9.222;2023-03-01T01:00:55;0.80;96.20
20081;DHT22;10200;49.232;9.222;2023-03-01T01:03:21;0.90;96.30
20081;DHT22;10200;49.232;9.222;2023-03-01T01:05:47;0.80;96.30
20081;DHT22;10200;49.232;9.222;2023-03-01T01:08:12;0.80;96.40
20081;DHT22;10200;49.232;9.222;2023-03-01T01:10:38;0.80;96.60
20081;DHT22;10200;49.232;9.222;2023-03-01T01:13:04;0.80;96.60
20081;DHT22;10200;49.232;9.222;2023-03-01T01:15:32;0.80;96.60
20081;DHT22;10200;49.232;9.222;2023-03-01T01:17:58;0.80;96.70
20081;DHT22;10200;49.232;9.222;2023-03-01T01:20:24;0.80;96.80
20081;DHT22;10200;49.232;9.222;2023-03-01T01:22:49;0.80;96.90
20081;DHT22;10200;49.232;9.222;2023-03-01T01:25:16;0.80;97.00
20081;DHT22;10200;49.232;9.222;2023-03-01T01:27:42;0.80;97.00
20081;DHT22;10200;49.232;9.222;2023-03-01T01:30:08;0.80;97.00
20081;DHT22;10200;49.232;9.222;2023-03-01T01:32:33;0.80;97.00
20081;DHT22;10200;49.232;9.222;2023-03-01T01:34:59;0.80;97.20
20081;DHT22;10200;49.232;9.222;2023-03-01T01:37:24;0.70;97.20
20081;DHT22;10200;49.232;9.222;2023-03-01T01:39:57;0.70;97.30
20081;DHT22;10200;49.232;9.222;2023-03-01T01:42:23;0.70;97.30
20081;DHT22;10200;49.232;9.222;2023-03-01T01:45:24;0.70;97.40
20081;DHT22;10200;49.232;9.222;2023-03-01T01:47:50;0.70;97.40
20081;DHT22;10200;49.232;9.222;2023-03-01T01:50:17;0.60;97.60
20081;DHT22;10200;49.232;9.222;2023-03-01T01:52:44;0.60;97.70
20081;DHT22;10200;49.232;9.222;2023-03-01T01:55:14;0.60;97.80
20081;DHT22;10200;49.232;9.222;2023-03-01T01:57:54;0.60;97.90
20081;DHT22;10200;49.232;9.222;2023-03-01T02:00:24;0.50;97.80
20081;DHT22;10200;49.232;9.222;2023-03-01T02:02:58;0.50;98.30
20081;DHT22;10200;49.232;9.222;2023-03-01T02:08:11;0.50;98.50
20081;DHT22;10200;49.232;9.222;2023-03-01T02:10:38;0.40;98.40
20081;DHT22;10200;49.232;9.222;2023-03-01T02:13:05;0.40;98.70
20081;DHT22;10200;49.232;9.222;2023-03-01T02:15:35;0.50;99.10
20081;DHT22;10200;49.232;9.222;2023-03-01T02:18:01;0.50;99.00
20081;DHT22;10200;49.232;9.222;2023-03-01T02:23:22;0.50;99.30
20081;DHT22;10200;49.232;9.222;2023-03-01T02:26:01;0.60;99.20
20081;DHT22;10200;49.232;9.222;2023-03-01T02:28:40;0.60;98.80
20081;DHT22;10200;49.232;9.222;2023-03-01T02:31:07;0.60;98.90
20081;DHT22;10200;49.232;9.222;2023-03-01T02:33:52;0.50;99.00
20081;DHT22;10200;49.232;9.222;2023-03-01T02:36:25;0.50;99.10
20081;DHT22;10200;49.232;9.222;2023-03-01T02:38:55;0.50;99.10
20081;DHT22;10200;49.232;9.222;2023-03-01T02:41:22;0.60;99.10
20081;DHT22;10200;49.232;9.222;2023-03-01T02:43:49;0.50;99.10
20081;DHT22;10200;49.232;9.222;2023-03-01T02:46:21;0.50;99.00
20081;DHT22;10200;49.232;9.222;2023-03-01T02:48:50;0.50;99.00
20081;DHT22;10200;49.232;9.222;2023-03-01T02:54:34;0.50;99.20
20081;DHT22;10200;49.232;9.222;2023-03-01T02:57:02;0.50;99.10
20081;DHT22;10200;49.232;9.222;2023-03-01T02:59:31;0.50;99.20
20081;DHT22;10200;49.232;9.222;2023-03-01T03:02:00;0.40;99.00
20081;DHT22;10200;49.232;9.222;2023-03-01T03:04:26;0.40;99.50
20081;DHT22;10200;49.232;9.222;2023-03-01T03:06:52;0.30;99.40
20081;DHT22;10200;49.232;9.222;2023-03-01T03:09:18;0.30;99.60
20081;DHT22;10200;49.232;9.222;2023-03-01T03:11:44;0.30;99.90
20081;DHT22;10200;49.232;9.222;2023-03-01T03:14:12;0.30;99.80
20081;DHT22;10200;49.232;9.222;2023-03-01T03:16:41;0.20;99.90
20081;DHT22;10200;49.232;9.222;2023-03-01T03:19:07;0.10;99.90
20081;DHT22;10200;49.232;9.222;2023-03-01T03:21:33;0.10;99.90
20081;DHT22;10200;49.232;9.222;2023-03-01T03:23:58;0.10;99.90
20081;DHT22;10200;49.232;9.222;2023-03-01T03:26:24;0.10;99.90
20081;DHT22;10200;49.232;9.222;2023-03-01T03:28:50;0.00;99.90
20081;DHT22;10200;49.232;9.222;2023-03-01T03:31:15;0.00;99.90
20081;DHT22;10200;49.232;9.222;2023-03-01T03:33:41;0.00;99.90
20081;DHT22;10200;49.232;9.222;2023-03-01T03:36:07;0.00;99.90
20081;DHT22;10200;49.232;9.222;2023-03-01T03:38:38;0.00;99.90
20081;DHT22;10200;49.232;9.222;2023-03-01T03:41:06;0.00;99.90
20081;DHT22;10200;49.232;9.222;2023-03-01T03:43:34;-0.10;99.90
20081;DHT22;10200;49.232;9.222;2023-03-01T03:46:00;-0.10;99.90
20081;DHT22;10200;49.232;9.222;2023-03-01T03:48:29;-0.10;99.90
20081;DHT22;10200;49.232;9.222;2023-03-01T03:50:55;-0.10;99.90
20081;DHT22;10200;49.232;9.222;2023-03-01T03:53:23;-0.10;99.90
20081;DHT22;10200;49.232;9.222;2023-03-01T03:55:49;-0.10;99.90
20081;DHT22;10200;49.232;9.222;2023-03-01T03:58:15;-0.10;99.90
20081;DHT22;10200;49.232;9.222;2023-03-01T04:00:44;-0.10;99.90
20081;DHT22;10200;49.232;9.222;2023-03-01T04:03:12;-0.10;99.90
20081;DHT22;10200;49.232;9.222;2023-03-01T04:05:39;-0.10;99.90
20081;DHT22;10200;49.232;9.222;2023-03-01T04:08:06;-0.10;99.90
20081;DHT22;10200;49.232;9.222;2023-03-01T04:10:38;-0.10;99.90
20081;DHT22;10200;49.232;9.222;2023-03-01T04:13:05;-0.10;99.90
20081;DHT22;10200;49.232;9.222;2023-03-01T04:15:31;-0.10;99.90
20081;DHT22;10200;49.232;9.222;2023-03-01T04:17:58;-0.10;99.90
20081;DHT22;10200;49.232;9.222;2023-03-01T04:20:26;-0.10;99.90
20081;DHT22;10200;49.232;9.222;2023-03-01T04:22:52;-0.10;99.90
20081;DHT22;10200;49.232;9.222;2023-03-01T04:25:22;-0.20;99.90
20081;DHT22;10200;49.232;9.222;2023-03-01T04:27:48;-0.20;99.90
20081;DHT22;10200;49.232;9.222;2023-03-01T04:30:14;-0.20;99.90
20081;DHT22;10200;49.232;9.222;2023-03-01T04:32:40;-0.20;99.90
20081;DHT22;10200;49.232;9.222;2023-03-01T04:35:06;-0.20;99.90
20081;DHT22;10200;49.232;9.222;2023-03-01T04:37:31;-0.20;99.90
20081;DHT22;10200;49.232;9.222;2023-03-01T04:39:57;-0.20;99.90
20081;DHT22;10200;49.232;9.222;2023-03-01T04:42:23;-0.20;99.90
20081;DHT22;10200;49.232;9.222;2023-03-01T04:44:48;-0.20;99.90
20081;DHT22;10200;49.232;9.222;2023-03-01T04:47:16;-0.20;99.90
20081;DHT22;10200;49.232;9.222;2023-03-01T04:49:42;-0.20;99.90
20081;DHT22;10200;49.232;9.222;2023-03-01T04:52:08;-0.20;99.90
20081;DHT22;10200;49.232;9.222;2023-03-01T04:54:35;-0.20;99.90
20081;DHT22;10200;49.232;9.222;2023-03-01T04:57:02;-0.20;99.90
20081;DHT22;10200;49.232;9.222;2023-03-01T04:59:28;-0.20;99.90
20081;DHT22;10200;49.232;9.222;2023-03-01T05:01:55;-0.30;99.90
20081;DHT22;10200;49.232;9.222;2023-03-01T05:04:22;-0.20;99.90
20081;DHT22;10200;49.232;9.222;2023-03-01T05:06:48;-0.20;99.90
20081;DHT22;10200;49.232;9.222;2023-03-01T05:09:13;-0.20;99.90
20081;DHT22;10200;49.232;9.222;2023-03-01T05:11:39;-0.20;99.90
20081;DHT22;10200;49.232;9.222;2023-03-01T05:14:05;-0.10;99.90
20081;DHT22;10200;49.232;9.222;2023-03-01T05:16:32;-0.20;99.90
20081;DHT22;10200;49.232;9.222;2023-03-01T05:18:58;-0.30;99.90
20081;DHT22;10200;49.232;9.222;2023-03-01T05:21:24;-0.30;99.90
20081;DHT22;10200;49.232;9.222;2023-03-01T05:23:50;-0.30;99.90
20081;DHT22;10200;49.232;9.222;2023-03-01T05:26:19;-0.30;99.90
20081;DHT22;10200;49.232;9.222;2023-03-01T05:28:47;-0.30;99.90
20081;DHT22;10200;49.232;9.222;2023-03-01T05:31:13;-0.30;99.90
20081;DHT22;10200;49.232;9.222;2023-03-01T05:33:39;-0.30;99.90
20081;DHT22;10200;49.232;9.222;2023-03-01T05:36:09;-0.30;99.90
20081;DHT22;10200;49.232;9.222;2023-03-01T05:38:37;-0.30;99.90
20081;DHT22;10200;49.232;9.222;2023-03-01T05:41:03;-0.30;99.90
20081;DHT22;10200;49.232;9.222;2023-03-01T05:43:30;-0.30;99.90
20081;DHT22;10200;49.232;9.222;2023-03-01T05:45:59;-0.30;99.90
20081;DHT22;10200;49.232;9.222;2023-03-01T05:48:25;-0.30;99.90
20081;DHT22;10200;49.232;9.222;2023-03-01T05:50:51;-0.30;99.90
20081;DHT22;10200;49.232;9.222;2023-03-01T05:53:18;-0.30;99.90
20081;DHT22;10200;49.232;9.222;2023-03-01T05:55:47;-0.30;99.90
20081;DHT22;10200;49.232;9.222;2023-03-01T05:58:16;-0.30;99.90
20081;DHT22;10200;49.232;9.222;2023-03-01T06:00:44;-0.30;99.90
20081;DHT22;10200;49.232;9.222;2023-03-01T06:03:11;-0.30;99.90
20081;DHT22;10200;49.232;9.222;2023-03-01T06:05:38;-0.30;99.90
20081;DHT22;10200;49.232;9.222;2023-03-01T06:08:04;-0.30;99.90
20081;DHT22;10200;49.232;9.222;2023-03-01T06:10:30;-0.30;99.90
20081;DHT22;10200;49.232;9.222;2023-03-01T06:12:56;-0.30;99.90
20081;DHT22;10200;49.232;9.222;2023-03-01T06:15:22;-0.30;99.90
20081;DHT22;10200;49.232;9.222;2023-03-01T06:17:48;-0.30;99.90
20081;DHT22;10200;49.232;9.222;2023-03-01T06:20:17;-0.30;99.90
20081;DHT22;10200;49.232;9.222;2023-03-01T06:22:43;-0.30;99.90
20081;DHT22;10200;49.232;9.222;2023-03-01T06:25:11;-0.20;99.90
20081;DHT22;10200;49.232;9.222;2023-03-01T06:27:37;-0.20;99.90
20081;DHT22;10200;49.232;9.222;2023-03-01T06:30:04;-0.20;99.90
20081;DHT22;10200;49.232;9.222;2023-03-01T06:32:29;-0.10;99.90
20081;DHT22;10200;49.232;9.222;2023-03-01T06:34:56;-0.10;99.90
20081;DHT22;10200;49.232;9.222;2023-03-01T06:37:24;-0.10;99.90
20081;DHT22;10200;49.232;9.222;2023-03-01T06:39:49;0.00;99.90
20081;DHT22;10200;49.232;9.222;2023-03-01T06:42:15;0.00;99.90
20081;DHT22;10200;49.232;9.222;2023-03-01T06:44:40;0.10;99.90
20081;DHT22;10200;49.232;9.222;2023-03-01T06:47:06;0.10;99.90
20081;DHT22;10200;49.232;9.222;2023-03-01T06:49:32;0.20;99.90
20081;DHT22;10200;49.232;9.222;2023-03-01T06:51:57;0.20;99.90
20081;DHT22;10200;49.232;9.222;2023-03-01T06:54:23;0.50;99.90
20081;DHT22;10200;49.232;9.222;2023-03-01T06:56:49;1.20;99.90
20081;DHT22;10200;49.232;9.222;2023-03-01T06:59:16;2.20;99.90
20081;DHT22;10200;49.232;9.222;2023-03-01T07:01:42;3.20;99.90
20081;DHT22;10200;49.232;9.222;2023-03-01T07:04:10;4.20;96.00
20081;DHT22;10200;49.232;9.222;2023-03-01T07:06:36;5.00;93.10
20081;DHT22;10200;49.232;9.222;2023-03-01T07:09:01;5.70;89.70
20081;DHT22;10200;49.232;9.222;2023-03-01T07:11:27;6.40;87.20
20081;DHT22;10200;49.232;9.222;2023-03-01T07:13:52;6.90;96.20
20081;DHT22;10200;49.232;9.222;2023-03-01T07:16:18;7.20;77.10
20081;DHT22;10200;49.232;9.222;2023-03-01T07:18:45;7.40;73.90
20081;DHT22;10200;49.232;9.222;2023-03-01T07:21:13;7.30;70.50
20081;DHT22;10200;49.232;9.222;2023-03-01T07:23:40;7.30;71.00
20081;DHT22;10200;49.232;9.222;2023-03-01T07:26:06;7.50;71.10
20081;DHT22;10200;49.232;9.222;2023-03-01T07:28:32;7.90;68.80
20081;DHT22;10200;49.232;9.222;2023-03-01T07:31:05;8.40;68.50
20081;DHT22;10200;49.232;9.222;2023-03-01T07:33:32;8.70;84.70
20081;DHT22;10200;49.232;9.222;2023-03-01T07:36:02;8.80;94.60
20081;DHT22;10200;49.232;9.222;2023-03-01T07:38:28;9.00;84.80
20081;DHT22;10200;49.232;9.222;2023-03-01T07:45:50;9.70;60.10
20081;DHT22;10200;49.232;9.222;2023-03-01T07:48:15;10.10;59.40
20081;DHT22;10200;49.232;9.222;2023-03-01T07:50:41;10.30;58.30
20081;DHT22;10200;49.232;9.222;2023-03-01T07:53:06;10.50;57.70
20081;DHT22;10200;49.232;9.222;2023-03-01T07:55:32;10.60;56.60
20081;DHT22;10200;49.232;9.222;2023-03-01T07:57:57;10.60;55.10
20081;DHT22;10200;49.232;9.222;2023-03-01T08:00:23;10.50;54.60
20081;DHT22;10200;49.232;9.222;2023-03-01T08:02:48;10.40;54.60
20081;DHT22;10200;49.232;9.222;2023-03-01T08:05:14;10.00;54.60
20081;DHT22;10200;49.232;9.222;2023-03-01T08:07:40;9.70;54.40
20081;DHT22;10200;49.232;9.222;2023-03-01T08:10:06;9.40;55.40
20081;DHT22;10200;49.232;9.222;2023-03-01T08:12:31;9.20;55.50
20081;DHT22;10200;49.232;9.222;2023-03-01T08:14:57;8.90;55.50
20081;DHT22;10200;49.232;9.222;2023-03-01T08:17:22;8.70;56.00
20081;DHT22;10200;49.232;9.222;2023-03-01T08:19:48;8.80;57.10
20081;DHT22;10200;49.232;9.222;2023-03-01T08:22:14;8.50;56.10
20081;DHT22;10200;49.232;9.222;2023-03-01T08:24:40;8.30;56.90
20081;DHT22;10200;49.232;9.222;2023-03-01T08:27:05;8.20;57.40
20081;DHT22;10200;49.232;9.222;2023-03-01T08:29:31;8.10;57.30
20081;DHT22;10200;49.232;9.222;2023-03-01T08:31:57;8.00;57.80
20081;DHT22;10200;49.232;9.222;2023-03-01T08:34:23;8.00;57.70
20081;DHT22;10200;49.232;9.222;2023-03-01T08:36:48;8.10;57.70
20081;DHT22;10200;49.232;9.222;2023-03-01T08:39:17;8.10;57.90
20081;DHT22;10200;49.232;9.222;2023-03-01T08:41:43;8.20;57.70
20081;DHT22;10200;49.232;9.222;2023-03-01T08:44:10;8.20;57.40
20081;DHT22;10200;49.232;9.222;2023-03-01T08:46:39;8.00;57.50
20081;DHT22;10200;49.232;9.222;2023-03-01T08:49:14;8.00;58.50
20081;DHT22;10200;49.232;9.222;2023-03-01T08:51:41;7.80;57.90
20081;DHT22;10200;49.232;9.222;2023-03-01T08:54:11;7.70;58.30
20081;DHT22;10200;49.232;9.222;2023-03-01T08:56:37;7.60;58.20
20081;DHT22;10200;49.232;9.222;2023-03-01T08:59:03;7.40;58.60
20081;DHT22;10200;49.232;9.222;2023-03-01T09:01:28;7.20;59.10
20081;DHT22;10200;49.232;9.222;2023-03-01T09:03:54;7.20;60.10
20081;DHT22;10200;49.232;9.222;2023-03-01T09:06:19;7.40;60.60
20081;DHT22;10200;49.232;9.222;2023-03-01T09:08:47;7.40;59.80
20081;DHT22;10200;49.232;9.222;2023-03-01T09:11:17;7.40;60.00
20081;DHT22;10200;49.232;9.222;2023-03-01T09:13:44;7.30;59.50
20081;DHT22;10200;49.232;9.222;2023-03-01T09:16:11;7.20;59.50
20081;DHT22;10200;49.232;9.222;2023-03-01T09:18:37;7.00;59.90
20081;DHT22;10200;49.232;9.222;2023-03-01T09:21:09;7.00;60.10
20081;DHT22;10200;49.232;9.222;2023-03-01T09:23:43;6.90;60.90
20081;DHT22;10200;49.232;9.222;2023-03-01T09:26:11;6.70;60.50
20081;DHT22;10200;49.232;9.222;2023-03-01T09:28:38;6.60;61.10
20081;DHT22;10200;49.232;9.222;2023-03-01T09:31:04;6.50;61.90
20081;DHT22;10200;49.232;9.222;2023-03-01T09:33:31;6.50;62.20
20081;DHT22;10200;49.232;9.222;2023-03-01T09:35:59;6.30;62.60
20081;DHT22;10200;49.232;9.222;2023-03-01T09:38:25;6.20;63.10
20081;DHT22;10200;49.232;9.222;2023-03-01T09:40:51;6.20;63.00
20081;DHT22;10200;49.232;9.222;2023-03-01T09:46:10;6.00;63.90
20081;DHT22;10200;49.232;9.222;2023-03-01T09:48:48;6.00;64.30
20081;DHT22;10200;49.232;9.222;2023-03-01T09:51:19;5.90;65.10
20081;DHT22;10200;49.232;9.222;2023-03-01T09:53:47;5.90;65.10
20081;DHT22;10200;49.232;9.222;2023-03-01T09:56:16;5.90;65.40
20081;DHT22;10200;49.232;9.222;2023-03-01T10:01:53;6.00;66.00
20081;DHT22;10200;49.232;9.222;2023-03-01T10:08:01;6.10;65.50
20081;DHT22;10200;49.232;9.222;2023-03-01T10:10:47;6.10;66.10
20081;DHT22;10200;49.232;9.222;2023-03-01T10:13:35;6.20;66.50
20081;DHT22;10200;49.232;9.222;2023-03-01T10:16:17;6.20;66.20
20081;DHT22;10200;49.232;9.222;2023-03-01T10:18:47;6.20;65.60
20081;DHT22;10200;49.232;9.222;2023-03-01T10:21:19;6.20;66.50
20081;DHT22;10200;49.232;9.222;2023-03-01T10:23:46;6.20;66.30
20081;DHT22;10200;49.232;9.222;2023-03-01T10:29:16;6.20;67.00
20081;DHT22;10200;49.232;9.222;2023-03-01T10:31:44;6.10;66.00
20081;DHT22;10200;49.232;9.222;2023-03-01T10:34:27;6.10;66.80
20081;DHT22;10200;49.232;9.222;2023-03-01T10:36:57;6.20;67.20
20081;DHT22;10200;49.232;9.222;2023-03-01T10:39:26;6.30;67.30
20081;DHT22;10200;49.232;9.222;2023-03-01T10:41:55;6.30;67.00
20081;DHT22;10200;49.232;9.222;2023-03-01T10:44:45;6.20;66.40
20081;DHT22;10200;49.232;9.222;2023-03-01T10:47:15;6.20;67.20
20081;DHT22;10200;49.232;9.222;2023-03-01T10:52:20;6.40;68.10
20081;DHT22;10200;49.232;9.222;2023-03-01T10:54:56;6.50;67.80
20081;DHT22;10200;49.232;9.222;2023-03-01T10:57:33;6.50;67.00
20081;DHT22;10200;49.232;9.222;2023-03-01T11:02:49;6.50;67.60
20081;DHT22;10200;49.232;9.222;2023-03-01T11:05:23;6.50;67.30
20081;DHT22;10200;49.232;9.222;2023-03-01T11:07:58;6.50;67.60
20081;DHT22;10200;49.232;9.222;2023-03-01T11:10:27;6.50;67.40
20081;DHT22;10200;49.232;9.222;2023-03-01T11:12:53;6.60;67.80
20081;DHT22;10200;49.232;9.222;2023-03-01T11:15:25;6.60;67.30
20081;DHT22;10200;49.232;9.222;2023-03-01T11:17:52;6.50;67.40
20081;DHT22;10200;49.232;9.222;2023-03-01T11:22:58;6.60;67.80
20081;DHT22;10200;49.232;9.222;2023-03-01T11:25:35;6.70;67.60
20081;DHT22;10200;49.232;9.222;2023-03-01T11:28:04;6.70;67.20
20081;DHT22;10200;49.232;9.222;2023-03-01T11:30:44;6.80;67.20
20081;DHT22;10200;49.232;9.222;2023-03-01T11:38:50;6.80;67.50
20081;DHT22;10200;49.232;9.222;2023-03-01T11:41:16;6.70;67.20
20081;DHT22;10200;49.232;9.222;2023-03-01T12:09:02;7.10;66.20
20081;DHT22;10200;49.232;9.222;2023-03-01T12:14:20;7.20;65.80
20081;DHT22;10200;49.232;9.222;2023-03-01T12:33:36;7.40;66.00
20081;DHT22;10200;49.232;9.222;2023-03-01T12:38:37;7.50;64.90
20081;DHT22;10200;49.232;9.222;2023-03-01T12:43:58;7.50;64.60
20081;DHT22;10200;49.232;9.222;2023-03-01T12:47:26;7.50;64.70
20081;DHT22;10200;49.232;9.222;2023-03-01T12:49:38;7.50;64.40
20081;DHT22;10200;49.232;9.222;2023-03-01T12:55:28;7.40;64.10
20081;DHT22;10200;49.232;9.222;2023-03-01T13:12:01;7.70;63.40
20081;DHT22;10200;49.232;9.222;2023-03-01T13:14:34;7.60;63.50
20081;DHT22;10200;49.232;9.222;2023-03-01T13:17:00;7.70;64.20
20081;DHT22;10200;49.232;9.222;2023-03-01T13:19:27;7.80;64.00
20081;DHT22;10200;49.232;9.222;2023-03-01T13:22:31;7.90;63.90
20081;DHT22;10200;49.232;9.222;2023-03-01T13:25:10;7.90;63.10
20081;DHT22;10200;49.232;9.222;2023-03-01T13:27:37;7.90;63.70
20081;DHT22;10200;49.232;9.222;2023-03-01T13:30:02;8.00;63.20
20081;DHT22;10200;49.232;9.222;2023-03-01T13:32:36;8.00;62.90
20081;DHT22;10200;49.232;9.222;2023-03-01T13:37:40;8.00;62.50
20081;DHT22;10200;49.232;9.222;2023-03-01T13:42:43;8.00;63.10
20081;DHT22;10200;49.232;9.222;2023-03-01T13:47:58;8.00;62.60
20081;DHT22;10200;49.232;9.222;2023-03-01T13:50:28;8.10;62.40
20081;DHT22;10200;49.232;9.222;2023-03-01T13:52:58;8.10;62.00
20081;DHT22;10200;49.232;9.222;2023-03-01T13:57:59;8.20;62.30
20081;DHT22;10200;49.232;9.222;2023-03-01T14:05:33;8.20;61.70
20081;DHT22;10200;49.232;9.222;2023-03-01T14:07:59;8.30;62.00
20081;DHT22;10200;49.232;9.222;2023-03-01T14:10:31;8.30;62.30
20081;DHT22;10200;49.232;9.222;2023-03-01T14:16:05;8.30;61.30
20081;DHT22;10200;49.232;9.222;2023-03-01T14:21:35;8.20;61.80
20081;DHT22;10200;49.232;9.222;2023-03-01T14:24:02;8.20;61.30
20081;DHT22;10200;49.232;9.222;2023-03-01T14:26:27;8.20;61.80
20081;DHT22;10200;49.232;9.222;2023-03-01T14:28:53;8.30;61.80
20081;DHT22;10200;49.232;9.222;2023-03-01T14:31:37;8.30;61.80
20081;DHT22;10200;49.232;9.222;2023-03-01T14:34:04;8.30;62.30
20081;DHT22;10200;49.232;9.222;2023-03-01T14:36:33;8.40;61.70
20081;DHT22;10200;49.232;9.222;2023-03-01T14:38:59;8.30;61.20
20081;DHT22;10200;49.232;9.222;2023-03-01T14:41:32;8.30;60.90
20081;DHT22;10200;49.232;9.222;2023-03-01T14:44:02;8.30;60.90
20081;DHT22;10200;49.232;9.222;2023-03-01T14:46:30;8.30;61.20
20081;DHT22;10200;49.232;9.222;2023-03-01T14:49:20;8.30;61.20
20081;DHT22;10200;49.232;9.222;2023-03-01T14:52:00;8.30;61.30
20081;DHT22;10200;49.232;9.222;2023-03-01T14:54:42;8.30;61.20
20081;DHT22;10200;49.232;9.222;2023-03-01T14:57:16;8.30;61.20
20081;DHT22;10200;49.232;9.222;2023-03-01T14:59:43;8.20;61.20
20081;DHT22;10200;49.232;9.222;2023-03-01T15:02:15;8.30;61.40
20081;DHT22;10200;49.232;9.222;2023-03-01T15:04:45;8.30;61.40
20081;DHT22;10200;49.232;9.222;2023-03-01T15:07:13;8.30;61.20
20081;DHT22;10200;49.232;9.222;2023-03-01T15:09:40;8.30;61.30
20081;DHT22;10200;49.232;9.222;2023-03-01T15:14:55;8.30;61.00
20081;DHT22;10200;49.232;9.222;2023-03-01T15:17:36;8.30;60.90
20081;DHT22;10200;49.232;9.222;2023-03-01T15:20:18;8.40;61.20
20081;DHT22;10200;49.232;9.222;2023-03-01T15:22:47;8.40;61.50
20081;DHT22;10200;49.232;9.222;2023-03-01T15:25:23;8.50;61.40
20081;DHT22;10200;49.232;9.222;2023-03-01T15:27:51;8.50;61.30
20081;DHT22;10200;49.232;9.222;2023-03-01T15:30:31;8.50;61.10
20081;DHT22;10200;49.232;9.222;2023-03-01T15:35:53;8.50;61.20
20081;DHT22;10200;49.232;9.222;2023-03-01T15:38:54;8.50;61.20
20081;DHT22;10200;49.232;9.222;2023-03-01T15:43:56;8.50;61.40
20081;DHT22;10200;49.232;9.222;2023-03-01T15:46:31;8.50;61.20
20081;DHT22;10200;49.232;9.222;2023-03-01T15:51:52;8.30;61.10
20081;DHT22;10200;49.232;9.222;2023-03-01T15:54:21;8.20;61.30
20081;DHT22;10200;49.232;9.222;2023-03-01T15:56:47;8.20;61.50
20081;DHT22;10200;49.232;9.222;2023-03-01T15:59:13;8.20;61.80
20081;DHT22;10200;49.232;9.222;2023-03-01T16:01:42;8.10;61.80
20081;DHT22;10200;49.232;9.222;2023-03-01T16:04:12;8.10;62.60
20081;DHT22;10200;49.232;9.222;2023-03-01T16:06:42;8.10;62.30
20081;DHT22;10200;49.232;9.222;2023-03-01T16:09:07;8.10;62.50
20081;DHT22;10200;49.232;9.222;2023-03-01T16:11:35;8.00;62.40
20081;DHT22;10200;49.232;9.222;2023-03-01T16:14:02;8.10;62.60
20081;DHT22;10200;49.232;9.222;2023-03-01T16:16:28;8.00;62.70
20081;DHT22;10200;49.232;9.222;2023-03-01T16:18:53;7.90;62.80
20081;DHT22;10200;49.232;9.222;2023-03-01T16:21:22;7.90;63.00
20081;DHT22;10200;49.232;9.222;2023-03-01T16:23:49;7.90;63.10
20081;DHT22;10200;49.232;9.222;2023-03-01T16:26:15;7.80;63.30
20081;DHT22;10200;49.232;9.222;2023-03-01T16:28:42;7.80;63.60
20081;DHT22;10200;49.232;9.222;2023-03-01T16:31:08;7.80;63.70
20081;DHT22;10200;49.232;9.222;2023-03-01T16:33:35;7.70;63.90
20081;DHT22;10200;49.232;9.222;2023-03-01T16:36:11;7.70;64.00
20081;DHT22;10200;49.232;9.222;2023-03-01T16:38:37;7.60;64.20
20081;DHT22;10200;49.232;9.222;2023-03-01T16:41:03;7.60;64.40
20081;DHT22;10200;49.232;9.222;2023-03-01T16:43:30;7.60;64.50
20081;DHT22;10200;49.232;9.222;2023-03-01T16:45:56;7.60;64.50
20081;DHT22;10200;49.232;9.222;2023-03-01T16:48:22;7.50;64.70
20081;DHT22;10200;49.232;9.222;2023-03-01T16:50:59;7.40;64.70
20081;DHT22;10200;49.232;9.222;2023-03-01T16:53:25;7.40;64.80
20081;DHT22;10200;49.232;9.222;2023-03-01T16:55:58;7.40;64.90
20081;DHT22;10200;49.232;9.222;2023-03-01T16:58:24;7.30;65.10
20081;DHT22;10200;49.232;9.222;2023-03-01T17:00:52;7.30;65.20
20081;DHT22;10200;49.232;9.222;2023-03-01T17:03:22;7.30;65.40
20081;DHT22;10200;49.232;9.222;2023-03-01T17:05:48;7.20;65.40
20081;DHT22;10200;49.232;9.222;2023-03-01T17:08:14;7.20;65.60
20081;DHT22;10200;49.232;9.222;2023-03-01T17:10:40;7.20;65.60
20081;DHT22;10200;49.232;9.222;2023-03-01T17:13:10;7.10;65.70
20081;DHT22;10200;49.232;9.222;2023-03-01T17:15:40;7.10;65.70
20081;DHT22;10200;49.232;9.222;2023-03-01T17:18:06;7.10;65.90
20081;DHT22;10200;49.232;9.222;2023-03-01T17:20:31;7.00;65.90
20081;DHT22;10200;49.232;9.222;2023-03-01T17:22:57;7.00;66.00
20081;DHT22;10200;49.232;9.222;2023-03-01T17:25:23;7.00;66.00
20081;DHT22;10200;49.232;9.222;2023-03-01T17:27:48;7.00;66.20
20081;DHT22;10200;49.232;9.222;2023-03-01T17:30:14;6.90;66.20
20081;DHT22;10200;49.232;9.222;2023-03-01T17:32:40;6.90;66.40
20081;DHT22;10200;49.232;9.222;2023-03-01T17:35:06;6.90;66.50
20081;DHT22;10200;49.232;9.222;2023-03-01T17:37:32;6.80;66.50
20081;DHT22;10200;49.232;9.222;2023-03-01T17:39:58;6.80;66.70
20081;DHT22;10200;49.232;9.222;2023-03-01T17:42:24;6.80;66.80
20081;DHT22;10200;49.232;9.222;2023-03-01T17:44:49;6.70;66.90
20081;DHT22;10200;49.232;9.222;2023-03-01T17:47:15;6.70;67.00
20081;DHT22;10200;49.232;9.222;2023-03-01T17:49:41;6.70;67.40
20081;DHT22;10200;49.232;9.222;2023-03-01T17:52:06;6.60;67.50
20081;DHT22;10200;49.232;9.222;2023-03-01T17:54:32;6.50;67.90
20081;DHT22;10200;49.232;9.222;2023-03-01T17:56:58;6.40;68.00
20081;DHT22;10200;49.232;9.222;2023-03-01T17:59:24;6.30;68.20
20081;DHT22;10200;49.232;9.222;2023-03-01T18:01:56;6.30;68.60
20081;DHT22;10200;49.232;9.222;2023-03-01T18:04:22;6.20;68.70
20081;DHT22;10200;49.232;9.222;2023-03-01T18:06:47;6.20;69.80
20081;DHT22;10200;49.232;9.222;2023-03-01T18:09:13;6.20;69.20
20081;DHT22;10200;49.232;9.222;2023-03-01T18:11:39;6.10;69.60